createdAt,value
2018-03-25T00:00:16.877Z,99.90
2018-03-25T00:02:45.129Z,99.90
2018-03-25T00:05:13.423Z,99.90
2018-03-25T00:07:41.680Z,99.90
2018-03-25T00:10:09.955Z,99.90
2018-03-25T00:12:38.232Z,99.90
2018-03-25T00:15:06.522Z,99.90
2018-03-25T00:17:34.782Z,99.90
2018-03-25T00:20:03.190Z,99.90
2018-03-25T00:22:31.473Z,99.90
2018-03-25T00:24:59.737Z,99.90
2018-03-25T00:27:28.125Z,99.90
2018-03-25T00:29:56.399Z,99.90
2018-03-25T00:32:24.675Z,99.90
2018-03-25T00:34:52.949Z,99.90
2018-03-25T00:37:21.244Z,99.90
2018-03-25T00:39:50.297Z,99.90
2018-03-25T00:42:18.589Z,99.90
2018-03-25T00:44:46.857Z,99.90
2018-03-25T00:47:15.140Z,99.90
2018-03-25T00:49:43.448Z,99.90
2018-03-25T00:52:13.251Z,99.90
2018-03-25T00:54:41.629Z,99.90
2018-03-25T00:57:10.657Z,99.90
2018-03-25T00:59:39.793Z,99.90
2018-03-25T01:02:08.062Z,99.90
2018-03-25T01:04:36.350Z,99.90
2018-03-25T01:07:04.616Z,99.90
2018-03-25T01:09:32.921Z,99.90
2018-03-25T01:12:01.206Z,99.90
2018-03-25T01:14:29.493Z,99.90
2018-03-25T01:16:57.864Z,99.90
2018-03-25T01:19:26.157Z,99.90
2018-03-25T01:21:55.973Z,99.90
2018-03-25T01:24:24.246Z,99.90
2018-03-25T01:26:53.387Z,99.90
2018-03-25T01:29:21.674Z,99.90
2018-03-25T01:31:49.941Z,99.90
2018-03-25T01:34:18.234Z,99.90
2018-03-25T01:36:46.541Z,99.90
2018-03-25T01:39:14.823Z,99.90
2018-03-25T01:41:43.105Z,99.90
2018-03-25T01:44:11.447Z,99.90
2018-03-25T01:46:39.733Z,99.90
2018-03-25T01:49:08.029Z,99.90
2018-03-25T01:51:36.405Z,99.90
2018-03-25T01:54:04.700Z,99.90
2018-03-25T01:56:32.993Z,99.90
2018-03-25T01:59:02.754Z,99.90
2018-03-25T02:01:31.052Z,99.90
2018-03-25T02:03:59.431Z,99.90
2018-03-25T02:06:27.721Z,99.90
2018-03-25T02:08:57.494Z,99.90
2018-03-25T02:11:25.902Z,99.90
2018-03-25T02:13:54.630Z,99.90
2018-03-25T02:16:23.665Z,99.90
2018-03-25T02:18:51.949Z,99.90
2018-03-25T02:21:20.216Z,99.90
2018-03-25T02:23:48.504Z,99.90
2018-03-25T02:26:16.780Z,99.90
2018-03-25T02:28:45.185Z,99.90
2018-03-25T02:31:14.353Z,99.90
2018-03-25T02:33:42.752Z,99.90
2018-03-25T02:36:11.032Z,99.90
2018-03-25T02:38:39.321Z,99.90
2018-03-25T02:41:08.363Z,99.90
2018-03-25T02:43:36.709Z,99.90
2018-03-25T02:46:05.790Z,99.90
2018-03-25T02:48:34.875Z,99.90
2018-03-25T02:51:03.164Z,99.90
2018-03-25T02:53:31.527Z,99.90
2018-03-25T02:55:59.813Z,99.90
2018-03-25T02:58:28.105Z,99.90
2018-03-25T03:00:57.180Z,99.90
2018-03-25T03:03:25.443Z,99.90
2018-03-25T03:05:53.839Z,99.90
2018-03-25T03:08:22.128Z,99.90
2018-03-25T03:10:50.431Z,99.90
2018-03-25T03:13:19.492Z,99.90
2018-03-25T03:15:47.779Z,99.90
2018-03-25T03:18:16.052Z,99.90
2018-03-25T03:20:44.356Z,99.90
2018-03-25T03:23:13.384Z,99.90
2018-03-25T03:25:41.676Z,99.90
2018-03-25T03:28:10.069Z,99.90
2018-03-25T03:30:38.466Z,99.90
2018-03-25T03:33:08.290Z,99.90
2018-03-25T03:35:37.364Z,99.90
2018-03-25T03:38:05.641Z,99.90
2018-03-25T03:40:34.013Z,99.90
2018-03-25T03:43:02.306Z,99.90
2018-03-25T03:45:32.082Z,99.90
2018-03-25T03:48:00.465Z,99.90
2018-03-25T03:50:28.739Z,99.90
2018-03-25T03:52:57.026Z,99.90
2018-03-25T03:55:25.301Z,99.90
2018-03-25T03:57:53.694Z,99.90
2018-03-25T04:00:21.954Z,99.90
2018-03-25T04:02:50.266Z,99.90
2018-03-25T04:05:20.037Z,99.90
2018-03-25T04:07:48.348Z,99.90
2018-03-25T04:10:16.630Z,99.90
2018-03-25T04:12:44.901Z,99.90
2018-03-25T04:15:13.185Z,99.90
2018-03-25T04:17:43.100Z,99.90
2018-03-25T04:20:11.389Z,99.90
2018-03-25T04:22:39.656Z,99.90
2018-03-25T04:25:09.450Z,99.90
2018-03-25T04:27:37.725Z,99.90
2018-03-25T04:30:06.115Z,99.90
2018-03-25T04:32:34.380Z,99.90
2018-03-25T04:35:02.681Z,99.90
2018-03-25T04:37:30.980Z,99.90
2018-03-25T04:40:00.141Z,99.90
2018-03-25T04:42:28.396Z,99.90
2018-03-25T04:44:56.704Z,99.90
2018-03-25T04:47:24.974Z,99.90
2018-03-25T04:49:53.260Z,99.90
2018-03-25T04:52:21.551Z,99.90
2018-03-25T04:54:51.314Z,99.90
2018-03-25T04:57:19.596Z,99.90
2018-03-25T04:59:47.891Z,99.90
2018-03-25T05:02:16.278Z,99.90
2018-03-25T05:04:44.562Z,99.90
2018-03-25T05:07:12.848Z,99.90
2018-03-25T05:09:41.884Z,99.90
2018-03-25T05:12:10.194Z,99.90
2018-03-25T05:14:38.455Z,99.90
2018-03-25T05:17:06.745Z,99.90
2018-03-25T05:19:35.009Z,99.90
2018-03-25T05:22:03.306Z,99.90
2018-03-25T05:24:31.584Z,99.90
2018-03-25T05:26:59.860Z,99.90
2018-03-25T05:29:29.664Z,99.90
2018-03-25T05:31:57.946Z,99.90
2018-03-25T05:37:00.858Z,99.90
2018-03-25T05:39:29.147Z,99.90
2018-03-25T05:41:57.424Z,99.90
2018-03-25T05:44:25.716Z,99.90
2018-03-25T05:46:54.798Z,99.90
2018-03-25T05:49:23.161Z,99.90
2018-03-25T05:51:51.444Z,99.90
2018-03-25T05:54:19.789Z,99.90
2018-03-25T05:56:48.056Z,99.90
2018-03-25T05:59:16.325Z,99.90
2018-03-25T06:01:44.614Z,99.90
2018-03-25T06:04:12.876Z,99.90
2018-03-25T06:06:41.177Z,99.90
2018-03-25T06:09:09.449Z,99.90
2018-03-25T06:11:37.732Z,99.90
2018-03-25T06:14:06.012Z,99.90
2018-03-25T06:16:34.311Z,99.90
2018-03-25T06:19:02.579Z,99.90
2018-03-25T06:21:30.944Z,99.90
2018-03-25T06:23:59.237Z,99.90
2018-03-25T06:26:27.628Z,99.90
2018-03-25T06:28:55.893Z,99.90
2018-03-25T06:31:24.196Z,99.90
2018-03-25T06:33:53.969Z,99.90
2018-03-25T06:36:22.273Z,99.90
2018-03-25T06:38:50.752Z,99.90
2018-03-25T06:41:19.131Z,99.90
2018-03-25T06:43:47.413Z,99.90
2018-03-25T06:46:15.688Z,99.90
2018-03-25T06:48:43.988Z,99.90
2018-03-25T06:51:12.289Z,99.90
2018-03-25T06:53:41.339Z,99.90
2018-03-25T06:56:09.628Z,99.90
2018-03-25T06:58:38.710Z,99.90
2018-03-25T07:01:06.990Z,99.90
2018-03-25T07:03:35.312Z,99.90
2018-03-25T07:06:04.387Z,99.90
2018-03-25T07:08:34.280Z,99.90
2018-03-25T07:11:02.563Z,99.90
2018-03-25T07:13:30.874Z,99.90
2018-03-25T07:15:59.921Z,99.90
2018-03-25T07:18:28.199Z,99.90
2018-03-25T07:20:56.490Z,99.90
2018-03-25T07:23:24.764Z,99.90
2018-03-25T07:25:53.245Z,99.90
2018-03-25T07:28:21.504Z,99.90
2018-03-25T07:30:49.797Z,99.90
2018-03-25T07:33:18.069Z,99.90
2018-03-25T07:35:46.370Z,99.90
2018-03-25T07:38:15.337Z,99.90
2018-03-25T07:40:43.628Z,99.90
2018-03-25T07:43:12.000Z,99.90
2018-03-25T07:45:40.396Z,99.90
2018-03-25T07:48:08.679Z,99.90
2018-03-25T07:50:36.936Z,99.90
2018-03-25T07:53:05.232Z,99.90
2018-03-25T07:55:33.502Z,99.90
2018-03-25T07:58:02.583Z,99.90
2018-03-25T08:00:30.869Z,99.90
2018-03-25T08:02:59.156Z,99.90
2018-03-25T08:05:27.436Z,99.90
2018-03-25T08:07:55.732Z,99.90
2018-03-25T08:10:24.788Z,99.90
2018-03-25T08:12:53.067Z,99.90
2018-03-25T08:15:21.338Z,99.90
2018-03-25T08:17:49.633Z,99.90
2018-03-25T08:20:18.008Z,99.90
2018-03-25T08:22:46.319Z,99.90
2018-03-25T08:25:15.344Z,99.90
2018-03-25T08:27:43.615Z,99.90
2018-03-25T08:30:11.895Z,99.90
2018-03-25T08:32:40.181Z,99.90
2018-03-25T08:35:08.496Z,99.90
2018-03-25T08:37:36.765Z,99.90
2018-03-25T08:40:05.055Z,99.90
2018-03-25T08:42:34.847Z,99.90
2018-03-25T08:45:03.123Z,99.90
2018-03-25T08:47:31.400Z,99.90
2018-03-25T08:49:59.786Z,99.90
2018-03-25T08:52:28.058Z,99.90
2018-03-25T08:54:56.346Z,99.90
2018-03-25T08:57:24.641Z,99.90
2018-03-25T08:59:52.939Z,99.90
2018-03-25T09:02:21.200Z,99.90
2018-03-25T09:04:50.252Z,99.90
2018-03-25T09:07:18.552Z,99.90
2018-03-25T09:09:46.857Z,99.90
2018-03-25T09:12:15.899Z,99.90
2018-03-25T09:14:44.198Z,99.90
2018-03-25T09:17:12.577Z,99.90
2018-03-25T09:19:40.960Z,99.90
2018-03-25T09:22:09.306Z,99.90
2018-03-25T09:24:38.316Z,99.90
2018-03-25T09:27:06.584Z,99.90
2018-03-25T09:29:34.888Z,99.90
2018-03-25T09:32:03.294Z,99.90
2018-03-25T09:34:32.329Z,99.90
2018-03-25T09:37:00.759Z,99.90
2018-03-25T09:39:29.034Z,99.90
2018-03-25T09:41:57.317Z,99.90
2018-03-25T09:44:26.418Z,99.90
2018-03-25T09:46:55.472Z,99.90
2018-03-25T09:49:23.758Z,99.90
2018-03-25T09:51:52.142Z,99.90
2018-03-25T09:54:20.411Z,99.90
2018-03-25T09:56:48.705Z,99.90
2018-03-25T09:59:17.005Z,99.90
2018-03-25T10:01:51.886Z,99.90
2018-03-25T10:04:20.303Z,99.90
2018-03-25T10:06:48.582Z,99.90
2018-03-25T10:09:16.891Z,99.90
2018-03-25T10:11:45.177Z,99.90
2018-03-25T10:14:13.593Z,99.90
2018-03-25T10:16:41.855Z,99.90
2018-03-25T10:19:10.162Z,99.90
2018-03-25T10:21:38.527Z,99.90
2018-03-25T10:24:06.803Z,99.90
2018-03-25T10:26:35.899Z,99.90
2018-03-25T10:29:04.193Z,99.90
2018-03-25T10:31:32.513Z,99.90
2018-03-25T10:34:00.804Z,99.90
2018-03-25T10:36:29.080Z,99.90
2018-03-25T10:38:57.374Z,99.90
2018-03-25T10:41:25.645Z,99.90
2018-03-25T10:43:54.047Z,99.90
2018-03-25T10:46:22.426Z,99.90
2018-03-25T10:48:50.707Z,99.90
2018-03-25T10:51:18.985Z,99.90
2018-03-25T10:53:47.366Z,99.90
2018-03-25T10:56:15.637Z,99.90
2018-03-25T10:58:43.945Z,99.90
2018-03-25T11:01:12.986Z,99.90
2018-03-25T11:03:41.389Z,99.90
2018-03-25T11:06:09.656Z,99.90
2018-03-25T11:08:37.948Z,99.90
2018-03-25T11:11:06.233Z,99.90
2018-03-25T11:13:34.618Z,99.90
2018-03-25T11:16:02.918Z,99.90
2018-03-25T11:18:31.973Z,99.90
2018-03-25T11:21:00.278Z,99.90
2018-03-25T11:23:29.378Z,99.90
2018-03-25T11:25:58.442Z,99.90
2018-03-25T11:28:26.721Z,99.90
2018-03-25T11:30:55.006Z,99.90
2018-03-25T11:33:23.274Z,99.20
2018-03-25T11:35:51.668Z,99.70
2018-03-25T11:38:21.486Z,95.40
2018-03-25T11:40:49.764Z,95.40
2018-03-25T11:43:18.824Z,97.60
2018-03-25T11:45:47.116Z,97.60
2018-03-25T11:48:15.398Z,99.90
2018-03-25T11:50:43.669Z,99.90
2018-03-25T11:53:11.983Z,94.20
2018-03-25T11:55:41.018Z,95.30
2018-03-25T11:58:09.322Z,95.20
2018-03-25T12:00:37.600Z,93.20
2018-03-25T12:03:05.988Z,94.10
2018-03-25T12:05:34.262Z,93.10
2018-03-25T12:08:02.551Z,97.60
2018-03-25T12:10:30.837Z,93.50
2018-03-25T12:12:59.137Z,93.00
2018-03-25T12:15:27.417Z,92.50
2018-03-25T12:17:55.695Z,94.80
2018-03-25T12:20:24.046Z,94.00
2018-03-25T12:22:52.309Z,93.40
2018-03-25T12:25:20.680Z,86.10
2018-03-25T12:27:49.057Z,93.40
2018-03-25T12:30:17.332Z,93.00
2018-03-25T12:32:45.613Z,92.00
2018-03-25T12:35:13.900Z,93.70
2018-03-25T12:37:42.269Z,90.50
2018-03-25T12:40:10.750Z,92.90
2018-03-25T12:42:39.013Z,91.30
2018-03-25T12:45:07.305Z,83.40
2018-03-25T12:47:35.703Z,91.20
2018-03-25T12:50:04.068Z,91.20
2018-03-25T12:52:32.349Z,89.50
2018-03-25T12:55:00.630Z,87.80
2018-03-25T12:57:28.909Z,79.50
2018-03-25T12:59:57.377Z,78.10
2018-03-25T13:02:25.770Z,80.90
2018-03-25T13:04:54.237Z,74.40
2018-03-25T13:07:22.619Z,74.10
2018-03-25T13:09:50.887Z,74.00
2018-03-25T13:12:19.174Z,73.50
2018-03-25T13:14:47.550Z,74.90
2018-03-25T13:17:15.901Z,67.80
2018-03-25T13:19:44.191Z,68.70
2018-03-25T13:22:12.482Z,68.80
2018-03-25T13:24:40.745Z,74.20
2018-03-25T13:27:09.125Z,71.50
2018-03-25T13:29:37.393Z,66.20
2018-03-25T13:32:05.717Z,77.50
2018-03-25T13:34:34.081Z,69.30
2018-03-25T13:37:02.352Z,64.80
2018-03-25T13:39:30.648Z,68.90
2018-03-25T13:41:58.919Z,68.60
2018-03-25T13:44:27.237Z,64.00
2018-03-25T13:46:55.509Z,60.10
2018-03-25T13:49:23.808Z,57.80
2018-03-25T13:51:52.105Z,57.50
2018-03-25T13:54:20.404Z,59.80
2018-03-25T13:56:48.798Z,60.70
2018-03-25T13:59:17.096Z,56.60
2018-03-25T14:01:45.375Z,51.80
2018-03-25T14:04:14.426Z,46.20
2018-03-25T14:06:42.721Z,46.10
2018-03-25T14:09:10.992Z,45.30
2018-03-25T14:11:39.367Z,41.60
2018-03-25T14:14:07.653Z,40.50
2018-03-25T14:16:35.949Z,39.20
2018-03-25T14:19:05.005Z,38.50
2018-03-25T14:21:33.286Z,38.50
2018-03-25T14:24:01.658Z,35.40
2018-03-25T14:26:30.054Z,35.40
2018-03-25T14:28:58.316Z,35.20
2018-03-25T14:31:26.694Z,35.90
2018-03-25T14:33:54.960Z,34.00
2018-03-25T14:36:23.456Z,35.50
2018-03-25T14:38:51.747Z,35.50
2018-03-25T14:41:20.127Z,34.10
2018-03-25T14:43:48.426Z,34.70
2018-03-25T14:46:17.488Z,34.70
2018-03-25T14:48:45.801Z,34.60
2018-03-25T14:51:14.860Z,31.30
2018-03-25T14:53:43.137Z,31.30
2018-03-25T14:56:11.409Z,30.40
2018-03-25T14:58:39.708Z,31.30
2018-03-25T15:01:07.983Z,31.00
2018-03-25T15:03:36.354Z,31.00
2018-03-25T15:06:04.633Z,32.10
2018-03-25T15:08:32.931Z,34.50
2018-03-25T15:11:01.196Z,34.80
2018-03-25T15:13:29.497Z,34.70
2018-03-25T15:15:58.553Z,33.10
2018-03-25T15:18:26.869Z,33.10
2018-03-25T15:20:55.907Z,34.80
2018-03-25T15:23:24.176Z,34.70
2018-03-25T15:25:52.545Z,34.80
2018-03-25T15:28:20.862Z,34.00
2018-03-25T15:30:49.161Z,35.30
2018-03-25T15:33:17.521Z,34.80
2018-03-25T15:35:45.819Z,34.70
2018-03-25T15:38:14.867Z,39.10
2018-03-25T15:40:43.208Z,38.90
2018-03-25T15:43:11.491Z,41.30
2018-03-25T15:45:39.826Z,41.70
2018-03-25T15:48:08.101Z,42.00
2018-03-25T15:50:36.484Z,42.70
2018-03-25T15:53:04.754Z,44.10
2018-03-25T15:55:33.075Z,43.70
2018-03-25T15:58:02.233Z,44.90
2018-03-25T16:00:30.558Z,44.80
2018-03-25T16:02:59.626Z,45.30
2018-03-25T16:05:28.001Z,45.30
2018-03-25T16:07:56.284Z,46.10
2018-03-25T16:10:24.568Z,47.60
2018-03-25T16:12:53.636Z,48.10
2018-03-25T16:15:21.922Z,47.80
2018-03-25T16:17:50.230Z,46.80
2018-03-25T16:20:19.378Z,45.10
2018-03-25T16:22:47.669Z,45.10
2018-03-25T16:25:15.948Z,47.00
2018-03-25T16:27:44.234Z,46.70
2018-03-25T16:30:14.037Z,49.00
2018-03-25T16:32:42.336Z,49.00
2018-03-25T16:35:11.383Z,51.30
2018-03-25T16:37:39.676Z,51.20
2018-03-25T16:40:07.951Z,51.50
2018-03-25T16:42:36.357Z,53.20
2018-03-25T16:45:04.640Z,53.80
2018-03-25T16:47:33.002Z,55.20
2018-03-25T16:50:01.377Z,59.70
2018-03-25T16:52:29.755Z,64.00
2018-03-25T16:54:58.039Z,66.30
2018-03-25T16:57:26.329Z,65.30
2018-03-25T16:59:54.638Z,73.20
2018-03-25T17:02:28.530Z,70.20
2018-03-25T17:04:56.830Z,70.20
2018-03-25T17:07:25.164Z,69.70
2018-03-25T17:09:53.466Z,73.20
2018-03-25T17:12:22.541Z,77.00
2018-03-25T17:14:50.829Z,76.60
2018-03-25T17:17:19.111Z,80.00
2018-03-25T17:19:48.281Z,94.40
2018-03-25T17:22:16.665Z,94.50
2018-03-25T17:24:44.950Z,94.90
2018-03-25T17:27:13.352Z,92.60
2018-03-25T17:29:41.617Z,94.30
2018-03-25T17:32:09.899Z,95.50
2018-03-25T17:34:38.973Z,99.90
2018-03-25T17:37:07.350Z,99.90
2018-03-25T17:39:35.623Z,99.90
2018-03-25T17:42:04.055Z,96.90
2018-03-25T17:44:33.094Z,99.90
2018-03-25T17:47:01.485Z,99.90
2018-03-25T17:49:29.787Z,99.90
2018-03-25T17:51:58.093Z,99.90
2018-03-25T17:54:26.423Z,99.90
2018-03-25T17:56:54.716Z,99.90
2018-03-25T17:59:22.998Z,99.90
2018-03-25T18:01:52.063Z,99.90
2018-03-25T18:04:20.377Z,99.90
2018-03-25T18:06:49.434Z,99.90
2018-03-25T18:09:17.738Z,99.90
2018-03-25T18:11:46.000Z,99.90
2018-03-25T18:14:14.305Z,99.20
2018-03-25T18:16:43.338Z,99.90
2018-03-25T18:19:11.638Z,99.90
2018-03-25T18:21:39.919Z,99.90
2018-03-25T18:24:08.961Z,99.40
2018-03-25T18:26:37.212Z,99.90
2018-03-25T18:29:05.492Z,99.90
2018-03-25T18:31:33.793Z,99.90
2018-03-25T18:34:02.073Z,99.90
2018-03-25T18:36:30.357Z,99.90
2018-03-25T18:38:58.632Z,99.90
2018-03-25T18:41:26.930Z,99.90
2018-03-25T18:43:55.243Z,99.90
2018-03-25T18:46:23.625Z,99.90
2018-03-25T18:48:51.898Z,99.90
2018-03-25T18:51:20.371Z,99.90
2018-03-25T18:53:48.637Z,99.90
2018-03-25T18:56:16.937Z,99.90
2018-03-25T18:58:45.411Z,99.90
2018-03-25T19:01:13.793Z,99.90
2018-03-25T19:03:42.073Z,99.90
2018-03-25T19:06:10.345Z,99.90
2018-03-25T19:08:39.407Z,99.90
2018-03-25T19:11:07.753Z,99.90
2018-03-25T19:13:36.913Z,99.90
2018-03-25T19:16:05.232Z,99.90
2018-03-25T19:18:33.775Z,99.90
2018-03-25T19:21:02.032Z,99.90
2018-03-25T19:23:30.317Z,99.90
2018-03-25T19:25:58.709Z,99.90
2018-03-25T19:28:27.192Z,99.90
2018-03-25T19:30:55.467Z,99.90
2018-03-25T19:33:23.850Z,99.90
2018-03-25T19:35:52.329Z,99.90
2018-03-25T19:38:20.617Z,99.90
2018-03-25T19:40:49.702Z,99.90
2018-03-25T19:43:18.198Z,99.90
2018-03-25T19:45:46.460Z,99.90
2018-03-25T19:48:14.759Z,99.90
2018-03-25T19:50:43.121Z,99.90
2018-03-25T19:53:11.444Z,99.90
2018-03-25T19:55:39.777Z,99.90
2018-03-25T19:58:08.173Z,99.90
2018-03-25T20:00:36.438Z,99.90
2018-03-25T20:03:05.526Z,99.90
2018-03-25T20:05:33.789Z,99.90
2018-03-25T20:08:02.085Z,99.90
2018-03-25T20:10:30.366Z,99.90
2018-03-25T20:12:59.561Z,99.90
2018-03-25T20:15:27.938Z,99.90
2018-03-25T20:17:56.317Z,99.90
2018-03-25T20:20:24.600Z,99.90
2018-03-25T20:22:52.955Z,99.90
2018-03-25T20:25:21.245Z,99.90
2018-03-25T20:27:49.500Z,99.90
2018-03-25T20:30:17.804Z,99.90
2018-03-25T20:32:46.093Z,99.90
2018-03-25T20:35:14.376Z,99.90
2018-03-25T20:37:42.637Z,99.90
2018-03-25T20:40:11.014Z,99.90
2018-03-25T20:42:39.267Z,99.90
2018-03-25T20:45:07.554Z,99.90
2018-03-25T20:47:35.841Z,99.90
2018-03-25T20:50:04.153Z,99.90
2018-03-25T20:52:33.195Z,99.90
2018-03-25T20:55:01.501Z,99.90
2018-03-25T20:57:29.790Z,99.90
2018-03-25T20:59:58.057Z,99.90
2018-03-25T21:02:26.429Z,99.90
2018-03-25T21:04:54.702Z,99.90
2018-03-25T21:07:22.997Z,99.90
2018-03-25T21:09:51.264Z,99.90
2018-03-25T21:12:19.556Z,99.90
2018-03-25T21:14:47.837Z,99.90
2018-03-25T21:17:16.137Z,99.90
2018-03-25T21:19:45.165Z,99.90
2018-03-25T21:22:13.461Z,99.90
2018-03-25T21:24:41.756Z,99.90
2018-03-25T21:27:10.132Z,99.90
2018-03-25T21:29:38.607Z,99.90
2018-03-25T21:32:06.997Z,99.90
2018-03-25T21:34:35.280Z,99.90
2018-03-25T21:37:03.644Z,99.90
2018-03-25T21:39:31.938Z,99.90
2018-03-25T21:42:00.203Z,99.90
2018-03-25T21:44:28.582Z,99.90
2018-03-25T21:46:57.213Z,99.90
2018-03-25T21:49:25.606Z,99.90
2018-03-25T21:51:54.351Z,99.90
2018-03-25T21:54:22.630Z,99.90
2018-03-25T21:56:50.896Z,99.90
2018-03-25T21:59:19.222Z,99.90
2018-03-25T22:01:47.500Z,99.90
2018-03-25T22:04:15.762Z,99.90
2018-03-25T22:06:44.815Z,99.90
2018-03-25T22:09:13.076Z,99.90
2018-03-25T22:11:41.385Z,99.90
2018-03-25T22:14:10.476Z,99.90
2018-03-25T22:16:38.853Z,99.90
2018-03-25T22:19:07.152Z,99.90
2018-03-25T22:21:36.200Z,99.90
2018-03-25T22:24:04.493Z,99.90
2018-03-25T22:26:32.886Z,99.90
2018-03-25T22:29:01.150Z,99.90
2018-03-25T22:31:29.534Z,99.90
2018-03-25T22:33:58.570Z,99.90
2018-03-25T22:36:27.601Z,99.90
2018-03-25T22:38:55.879Z,99.90
2018-03-25T22:41:24.142Z,99.90
2018-03-25T22:43:52.427Z,99.90
2018-03-25T22:46:21.422Z,99.90
2018-03-25T22:48:49.750Z,99.90
2018-03-25T22:51:18.813Z,99.90
2018-03-25T22:53:47.211Z,99.90
2018-03-25T22:56:15.479Z,99.90
2018-03-25T22:58:43.766Z,99.90
2018-03-25T23:01:12.033Z,99.90
2018-03-25T23:03:40.309Z,99.90
2018-03-25T23:06:08.573Z,99.90
2018-03-25T23:08:36.886Z,99.90
2018-03-25T23:11:06.060Z,99.90
2018-03-25T23:13:34.317Z,99.90
2018-03-25T23:16:02.613Z,99.90
2018-03-25T23:18:30.860Z,99.90
2018-03-25T23:20:59.169Z,99.90
2018-03-25T23:23:27.461Z,99.90
2018-03-25T23:25:55.928Z,99.90
2018-03-25T23:28:24.209Z,99.90
2018-03-25T23:30:52.585Z,99.90
2018-03-25T23:33:20.869Z,99.90
2018-03-25T23:35:49.240Z,99.90
2018-03-25T23:38:17.502Z,99.90
2018-03-25T23:40:45.781Z,99.90
2018-03-25T23:43:14.071Z,99.90
2018-03-25T23:45:42.369Z,99.90
2018-03-25T23:48:10.729Z,99.90
2018-03-25T23:50:39.019Z,99.90
2018-03-25T23:53:07.603Z,99.90
2018-03-25T23:55:35.881Z,99.90
2018-03-25T23:58:04.169Z,99.90
